sensor_id;sensor_type;location;lat;lon;timestamp;P1;durP1;ratioP1;P2;durP2;ratioP2
69240;SDS011;56352;55.750;13.198;2023-04-01T00:01:05;3.90;;;2.15;;
69240;SDS011;56352;55.750;13.198;2023-04-01T00:03:32;2.97;;;2.47;;
69240;SDS011;56352;55.750;13.198;2023-04-01T00:05:59;3.03;;;2.63;;
69240;SDS011;56352;55.750;13.198;2023-04-01T00:08:26;2.90;;;2.50;;
69240;SDS011;56352;55.750;13.198;2023-04-01T00:10:53;3.75;;;2.80;;
69240;SDS011;56352;55.750;13.198;2023-04-01T00:13:20;3.00;;;2.53;;
69240;SDS011;56352;55.750;13.198;2023-04-01T00:15:47;3.83;;;2.90;;
69240;SDS011;56352;55.750;13.198;2023-04-01T00:18:14;4.53;;;2.50;;
69240;SDS011;56352;55.750;13.198;2023-04-01T00:20:44;3.85;;;2.88;;
69240;SDS011;56352;55.750;13.198;2023-04-01T00:23:11;3.65;;;2.72;;
69240;SDS011;56352;55.750;13.198;2023-04-01T00:25:38;3.72;;;2.42;;
69240;SDS011;56352;55.750;13.198;2023-04-01T00:28:04;3.28;;;2.70;;
69240;SDS011;56352;55.750;13.198;2023-04-01T00:30:31;3.22;;;2.40;;
69240;SDS011;56352;55.750;13.198;2023-04-01T00:32:57;3.22;;;2.67;;
69240;SDS011;56352;55.750;13.198;2023-04-01T00:35:24;4.60;;;2.78;;
69240;SDS011;56352;55.750;13.198;2023-04-01T00:37:50;3.22;;;2.60;;
69240;SDS011;56352;55.750;13.198;2023-04-01T00:40:27;3.00;;;1.95;;
69240;SDS011;56352;55.750;13.198;2023-04-01T00:42:54;2.33;;;1.80;;
69240;SDS011;56352;55.750;13.198;2023-04-01T00:45:35;4.35;;;2.60;;
69240;SDS011;56352;55.750;13.198;2023-04-01T00:48:04;2.53;;;1.90;;
69240;SDS011;56352;55.750;13.198;2023-04-01T00:50:32;2.55;;;2.13;;
69240;SDS011;56352;55.750;13.198;2023-04-01T00:53:00;3.05;;;2.30;;
69240;SDS011;56352;55.750;13.198;2023-04-01T00:55:27;3.47;;;2.28;;
69240;SDS011;56352;55.750;13.198;2023-04-01T00:57:55;3.67;;;2.63;;
69240;SDS011;56352;55.750;13.198;2023-04-01T01:00:23;2.88;;;2.20;;
69240;SDS011;56352;55.750;13.198;2023-04-01T01:02:49;4.05;;;2.47;;
69240;SDS011;56352;55.750;13.198;2023-04-01T01:05:17;3.35;;;2.20;;
69240;SDS011;56352;55.750;13.198;2023-04-01T01:10:31;3.88;;;2.80;;
69240;SDS011;56352;55.750;13.198;2023-04-01T01:13:21;3.17;;;2.42;;
69240;SDS011;56352;55.750;13.198;2023-04-01T01:27:07;4.82;;;3.05;;
69240;SDS011;56352;55.750;13.198;2023-04-01T01:37:10;4.03;;;2.47;;
69240;SDS011;56352;55.750;13.198;2023-04-01T01:39:38;4.43;;;2.65;;
69240;SDS011;56352;55.750;13.198;2023-04-01T01:42:06;4.20;;;2.53;;
69240;SDS011;56352;55.750;13.198;2023-04-01T01:44:34;8.30;;;3.03;;
69240;SDS011;56352;55.750;13.198;2023-04-01T01:47:01;4.30;;;2.72;;
69240;SDS011;56352;55.750;13.198;2023-04-01T01:49:28;3.85;;;2.72;;
69240;SDS011;56352;55.750;13.198;2023-04-01T01:51:56;3.88;;;2.53;;
69240;SDS011;56352;55.750;13.198;2023-04-01T01:54:23;3.30;;;2.60;;
69240;SDS011;56352;55.750;13.198;2023-04-01T01:56:50;4.82;;;2.38;;
69240;SDS011;56352;55.750;13.198;2023-04-01T01:59:19;4.70;;;2.50;;
69240;SDS011;56352;55.750;13.198;2023-04-01T02:01:48;3.63;;;2.57;;
69240;SDS011;56352;55.750;13.198;2023-04-01T02:04:15;4.82;;;3.03;;
69240;SDS011;56352;55.750;13.198;2023-04-01T02:06:45;3.50;;;2.60;;
69240;SDS011;56352;55.750;13.198;2023-04-01T02:09:12;4.85;;;2.60;;
69240;SDS011;56352;55.750;13.198;2023-04-01T02:14:15;5.28;;;3.67;;
69240;SDS011;56352;55.750;13.198;2023-04-01T02:16:59;4.53;;;2.72;;
69240;SDS011;56352;55.750;13.198;2023-04-01T02:19:30;4.38;;;2.88;;
69240;SDS011;56352;55.750;13.198;2023-04-01T02:21:58;3.33;;;2.65;;
69240;SDS011;56352;55.750;13.198;2023-04-01T02:24:26;4.75;;;2.60;;
69240;SDS011;56352;55.750;13.198;2023-04-01T02:26:53;4.15;;;3.03;;
69240;SDS011;56352;55.750;13.198;2023-04-01T02:29:20;4.85;;;2.75;;
69240;SDS011;56352;55.750;13.198;2023-04-01T02:31:48;5.15;;;3.38;;
69240;SDS011;56352;55.750;13.198;2023-04-01T02:34:15;4.60;;;2.97;;
69240;SDS011;56352;55.750;13.198;2023-04-01T02:36:41;3.42;;;2.88;;
69240;SDS011;56352;55.750;13.198;2023-04-01T02:39:08;5.18;;;3.13;;
69240;SDS011;56352;55.750;13.198;2023-04-01T02:41:39;4.40;;;2.92;;
69240;SDS011;56352;55.750;13.198;2023-04-01T02:44:07;5.13;;;2.92;;
69240;SDS011;56352;55.750;13.198;2023-04-01T02:46:33;5.72;;;3.42;;
69240;SDS011;56352;55.750;13.198;2023-04-01T02:49:00;6.85;;;3.55;;
69240;SDS011;56352;55.750;13.198;2023-04-01T02:51:27;5.93;;;3.30;;
69240;SDS011;56352;55.750;13.198;2023-04-01T02:53:53;4.68;;;3.08;;
69240;SDS011;56352;55.750;13.198;2023-04-01T02:56:20;7.07;;;3.47;;
69240;SDS011;56352;55.750;13.198;2023-04-01T02:58:46;4.97;;;3.20;;
69240;SDS011;56352;55.750;13.198;2023-04-01T03:01:13;7.38;;;3.22;;
69240;SDS011;56352;55.750;13.198;2023-04-01T03:03:39;7.07;;;3.72;;
69240;SDS011;56352;55.750;13.198;2023-04-01T03:06:06;7.80;;;3.72;;
69240;SDS011;56352;55.750;13.198;2023-04-01T03:08:33;6.97;;;3.65;;
69240;SDS011;56352;55.750;13.198;2023-04-01T03:11:00;6.05;;;3.53;;
69240;SDS011;56352;55.750;13.198;2023-04-01T03:15:55;4.60;;;3.17;;
69240;SDS011;56352;55.750;13.198;2023-04-01T03:18:22;6.22;;;3.53;;
69240;SDS011;56352;55.750;13.198;2023-04-01T03:20:48;7.03;;;3.60;;
69240;SDS011;56352;55.750;13.198;2023-04-01T03:23:15;5.47;;;3.42;;
69240;SDS011;56352;55.750;13.198;2023-04-01T03:25:43;6.57;;;3.33;;
69240;SDS011;56352;55.750;13.198;2023-04-01T03:28:09;5.35;;;3.10;;
69240;SDS011;56352;55.750;13.198;2023-04-01T03:30:36;6.55;;;3.80;;
69240;SDS011;56352;55.750;13.198;2023-04-01T03:33:03;5.65;;;3.53;;
69240;SDS011;56352;55.750;13.198;2023-04-01T03:35:29;5.45;;;3.35;;
69240;SDS011;56352;55.750;13.198;2023-04-01T03:37:56;6.53;;;3.08;;
69240;SDS011;56352;55.750;13.198;2023-04-01T03:40:23;7.03;;;3.33;;
69240;SDS011;56352;55.750;13.198;2023-04-01T03:42:49;5.90;;;3.05;;
69240;SDS011;56352;55.750;13.198;2023-04-01T03:45:16;3.78;;;2.90;;
69240;SDS011;56352;55.750;13.198;2023-04-01T03:47:43;4.35;;;3.05;;
69240;SDS011;56352;55.750;13.198;2023-04-01T03:50:10;6.20;;;2.85;;
69240;SDS011;56352;55.750;13.198;2023-04-01T03:52:36;4.00;;;3.13;;
69240;SDS011;56352;55.750;13.198;2023-04-01T03:55:03;7.18;;;3.30;;
69240;SDS011;56352;55.750;13.198;2023-04-01T03:57:32;6.32;;;3.17;;
69240;SDS011;56352;55.750;13.198;2023-04-01T03:59:59;8.48;;;2.97;;
69240;SDS011;56352;55.750;13.198;2023-04-01T04:02:25;4.25;;;2.78;;
69240;SDS011;56352;55.750;13.198;2023-04-01T04:04:52;5.60;;;3.00;;
69240;SDS011;56352;55.750;13.198;2023-04-01T04:07:18;3.95;;;3.20;;
69240;SDS011;56352;55.750;13.198;2023-04-01T04:09:45;6.40;;;3.10;;
69240;SDS011;56352;55.750;13.198;2023-04-01T04:12:11;6.05;;;2.65;;
69240;SDS011;56352;55.750;13.198;2023-04-01T04:14:38;5.07;;;3.20;;
69240;SDS011;56352;55.750;13.198;2023-04-01T04:17:04;4.22;;;2.50;;
69240;SDS011;56352;55.750;13.198;2023-04-01T04:19:32;5.00;;;2.80;;
69240;SDS011;56352;55.750;13.198;2023-04-01T04:22:00;4.10;;;2.80;;
69240;SDS011;56352;55.750;13.198;2023-04-01T04:24:27;6.13;;;4.43;;
69240;SDS011;56352;55.750;13.198;2023-04-01T04:26:54;5.22;;;3.42;;
69240;SDS011;56352;55.750;13.198;2023-04-01T04:29:20;7.65;;;3.10;;
69240;SDS011;56352;55.750;13.198;2023-04-01T04:31:48;5.28;;;3.13;;
69240;SDS011;56352;55.750;13.198;2023-04-01T04:34:15;5.25;;;3.08;;
69240;SDS011;56352;55.750;13.198;2023-04-01T04:36:42;6.72;;;3.10;;
69240;SDS011;56352;55.750;13.198;2023-04-01T04:39:09;4.65;;;3.00;;
69240;SDS011;56352;55.750;13.198;2023-04-01T04:41:38;6.15;;;3.30;;
69240;SDS011;56352;55.750;13.198;2023-04-01T04:44:05;5.63;;;3.10;;
69240;SDS011;56352;55.750;13.198;2023-04-01T04:46:31;4.03;;;3.30;;
69240;SDS011;56352;55.750;13.198;2023-04-01T04:48:58;3.58;;;2.55;;
69240;SDS011;56352;55.750;13.198;2023-04-01T04:51:25;5.13;;;2.50;;
69240;SDS011;56352;55.750;13.198;2023-04-01T04:53:51;4.78;;;2.95;;
69240;SDS011;56352;55.750;13.198;2023-04-01T04:56:19;6.53;;;2.80;;
69240;SDS011;56352;55.750;13.198;2023-04-01T04:58:46;4.63;;;2.83;;
69240;SDS011;56352;55.750;13.198;2023-04-01T05:01:13;6.70;;;3.10;;
69240;SDS011;56352;55.750;13.198;2023-04-01T05:03:40;3.42;;;2.08;;
69240;SDS011;56352;55.750;13.198;2023-04-01T05:06:08;6.93;;;2.63;;
69240;SDS011;56352;55.750;13.198;2023-04-01T05:08:34;4.60;;;3.08;;
69240;SDS011;56352;55.750;13.198;2023-04-01T05:11:01;5.68;;;3.00;;
69240;SDS011;56352;55.750;13.198;2023-04-01T05:13:28;3.75;;;2.60;;
69240;SDS011;56352;55.750;13.198;2023-04-01T05:15:55;3.45;;;2.63;;
69240;SDS011;56352;55.750;13.198;2023-04-01T05:18:21;5.55;;;3.10;;
69240;SDS011;56352;55.750;13.198;2023-04-01T05:20:49;4.85;;;2.67;;
69240;SDS011;56352;55.750;13.198;2023-04-01T05:23:16;6.68;;;2.45;;
69240;SDS011;56352;55.750;13.198;2023-04-01T05:25:43;4.18;;;1.92;;
69240;SDS011;56352;55.750;13.198;2023-04-01T05:28:09;5.47;;;2.25;;
69240;SDS011;56352;55.750;13.198;2023-04-01T05:30:36;3.10;;;2.10;;
69240;SDS011;56352;55.750;13.198;2023-04-01T05:33:02;3.92;;;2.17;;
69240;SDS011;56352;55.750;13.198;2023-04-01T05:35:29;2.92;;;1.67;;
69240;SDS011;56352;55.750;13.198;2023-04-01T05:37:55;4.47;;;1.83;;
69240;SDS011;56352;55.750;13.198;2023-04-01T05:40:22;2.70;;;2.03;;
69240;SDS011;56352;55.750;13.198;2023-04-01T05:42:49;3.80;;;2.33;;
69240;SDS011;56352;55.750;13.198;2023-04-01T05:45:16;4.82;;;2.70;;
69240;SDS011;56352;55.750;13.198;2023-04-01T05:47:42;3.25;;;2.13;;
69240;SDS011;56352;55.750;13.198;2023-04-01T05:50:09;3.53;;;2.22;;
69240;SDS011;56352;55.750;13.198;2023-04-01T05:52:37;2.72;;;2.00;;
69240;SDS011;56352;55.750;13.198;2023-04-01T05:55:03;2.55;;;1.50;;
69240;SDS011;56352;55.750;13.198;2023-04-01T05:57:30;2.90;;;1.40;;
69240;SDS011;56352;55.750;13.198;2023-04-01T05:59:57;2.10;;;1.90;;
69240;SDS011;56352;55.750;13.198;2023-04-01T06:02:23;3.22;;;1.50;;
69240;SDS011;56352;55.750;13.198;2023-04-01T06:04:51;2.78;;;1.60;;
69240;SDS011;56352;55.750;13.198;2023-04-01T06:07:20;2.38;;;1.15;;
69240;SDS011;56352;55.750;13.198;2023-04-01T06:09:47;1.23;;;1.13;;
69240;SDS011;56352;55.750;13.198;2023-04-01T06:18:02;2.75;;;1.50;;
69240;SDS011;56352;55.750;13.198;2023-04-01T06:23:02;2.67;;;1.77;;
69240;SDS011;56352;55.750;13.198;2023-04-01T06:28:03;2.33;;;1.70;;
69240;SDS011;56352;55.750;13.198;2023-04-01T06:48:28;4.45;;;2.00;;
69240;SDS011;56352;55.750;13.198;2023-04-01T06:53:46;3.90;;;1.23;;
69240;SDS011;56352;55.750;13.198;2023-04-01T06:56:16;2.90;;;1.10;;
69240;SDS011;56352;55.750;13.198;2023-04-01T07:03:41;3.58;;;1.40;;
69240;SDS011;56352;55.750;13.198;2023-04-01T07:06:11;1.60;;;1.40;;
69240;SDS011;56352;55.750;13.198;2023-04-01T07:08:39;2.00;;;1.27;;
69240;SDS011;56352;55.750;13.198;2023-04-01T07:11:09;1.47;;;0.90;;
69240;SDS011;56352;55.750;13.198;2023-04-01T07:16:05;2.70;;;1.08;;
69240;SDS011;56352;55.750;13.198;2023-04-01T07:18:41;2.20;;;0.93;;
69240;SDS011;56352;55.750;13.198;2023-04-01T07:21:29;1.98;;;1.20;;
69240;SDS011;56352;55.750;13.198;2023-04-01T07:24:00;1.77;;;1.40;;
69240;SDS011;56352;55.750;13.198;2023-04-01T07:26:27;2.78;;;1.40;;
69240;SDS011;56352;55.750;13.198;2023-04-01T07:28:54;2.40;;;1.30;;
69240;SDS011;56352;55.750;13.198;2023-04-01T07:31:25;3.97;;;0.85;;
69240;SDS011;56352;55.750;13.198;2023-04-01T07:34:09;1.33;;;1.00;;
69240;SDS011;56352;55.750;13.198;2023-04-01T07:52:12;0.95;;;0.68;;
69240;SDS011;56352;55.750;13.198;2023-04-01T07:54:44;1.80;;;1.00;;
69240;SDS011;56352;55.750;13.198;2023-04-01T08:07:54;5.32;;;1.15;;
69240;SDS011;56352;55.750;13.198;2023-04-01T08:15:56;2.38;;;0.98;;
69240;SDS011;56352;55.750;13.198;2023-04-01T08:21:12;1.45;;;0.80;;
69240;SDS011;56352;55.750;13.198;2023-04-01T08:23:41;1.58;;;0.90;;
69240;SDS011;56352;55.750;13.198;2023-04-01T08:31:25;2.03;;;0.70;;
69240;SDS011;56352;55.750;13.198;2023-04-01T08:33:55;2.65;;;0.93;;
69240;SDS011;56352;55.750;13.198;2023-04-01T08:36:23;2.22;;;0.90;;
69240;SDS011;56352;55.750;13.198;2023-04-01T08:44:16;2.47;;;0.70;;
69240;SDS011;56352;55.750;13.198;2023-04-01T08:46:59;1.58;;;0.65;;
69240;SDS011;56352;55.750;13.198;2023-04-01T09:13:05;2.08;;;0.75;;
69240;SDS011;56352;55.750;13.198;2023-04-01T09:25:44;3.22;;;0.80;;
69240;SDS011;56352;55.750;13.198;2023-04-01T09:28:14;0.90;;;0.75;;
69240;SDS011;56352;55.750;13.198;2023-04-01T09:38:59;1.33;;;0.82;;
69240;SDS011;56352;55.750;13.198;2023-04-01T09:41:32;1.63;;;0.73;;
69240;SDS011;56352;55.750;13.198;2023-04-01T09:44:15;2.10;;;0.70;;
69240;SDS011;56352;55.750;13.198;2023-04-01T09:59:59;2.97;;;0.85;;
69240;SDS011;56352;55.750;13.198;2023-04-01T10:20:26;1.50;;;0.80;;
69240;SDS011;56352;55.750;13.198;2023-04-01T10:25:27;1.10;;;0.70;;
69240;SDS011;56352;55.750;13.198;2023-04-01T10:46:39;1.90;;;1.00;;
69240;SDS011;56352;55.750;13.198;2023-04-01T10:51:49;3.15;;;1.00;;
69240;SDS011;56352;55.750;13.198;2023-04-01T10:59:25;1.90;;;0.73;;
69240;SDS011;56352;55.750;13.198;2023-04-01T11:10:04;2.08;;;0.73;;
69240;SDS011;56352;55.750;13.198;2023-04-01T11:23:10;1.70;;;0.90;;
69240;SDS011;56352;55.750;13.198;2023-04-01T11:25:56;1.95;;;0.82;;
69240;SDS011;56352;55.750;13.198;2023-04-01T11:31:15;1.77;;;0.73;;
69240;SDS011;56352;55.750;13.198;2023-04-01T11:36:20;2.10;;;1.00;;
69240;SDS011;56352;55.750;13.198;2023-04-01T11:41:39;3.67;;;1.13;;
69240;SDS011;56352;55.750;13.198;2023-04-01T11:52:01;1.13;;;0.80;;
69240;SDS011;56352;55.750;13.198;2023-04-01T11:57:31;1.17;;;0.65;;
69240;SDS011;56352;55.750;13.198;2023-04-01T12:13:30;1.05;;;0.80;;
69240;SDS011;56352;55.750;13.198;2023-04-01T12:21:38;1.77;;;0.70;;
69240;SDS011;56352;55.750;13.198;2023-04-01T12:26:27;0.90;;;0.73;;
69240;SDS011;56352;55.750;13.198;2023-04-01T12:47:15;1.98;;;0.70;;
69240;SDS011;56352;55.750;13.198;2023-04-01T12:49:55;1.67;;;0.85;;
69240;SDS011;56352;55.750;13.198;2023-04-01T13:00:18;1.73;;;0.70;;
69240;SDS011;56352;55.750;13.198;2023-04-01T13:05:49;1.42;;;0.73;;
69240;SDS011;56352;55.750;13.198;2023-04-01T13:08:32;1.40;;;0.70;;
69240;SDS011;56352;55.750;13.198;2023-04-01T13:16:29;1.30;;;0.80;;
69240;SDS011;56352;55.750;13.198;2023-04-01T13:19:14;1.52;;;0.80;;
69240;SDS011;56352;55.750;13.198;2023-04-01T13:27:07;2.25;;;0.80;;
69240;SDS011;56352;55.750;13.198;2023-04-01T13:29:39;1.10;;;0.73;;
69240;SDS011;56352;55.750;13.198;2023-04-01T13:44:39;1.58;;;0.95;;
69240;SDS011;56352;55.750;13.198;2023-04-01T14:03:09;1.75;;;1.00;;
69240;SDS011;56352;55.750;13.198;2023-04-01T14:19:41;0.90;;;0.55;;
69240;SDS011;56352;55.750;13.198;2023-04-01T14:24:31;1.58;;;0.95;;
69240;SDS011;56352;55.750;13.198;2023-04-01T14:32:08;1.60;;;1.00;;
69240;SDS011;56352;55.750;13.198;2023-04-01T14:50:27;2.20;;;0.80;;
69240;SDS011;56352;55.750;13.198;2023-04-01T14:55:29;2.65;;;0.80;;
69240;SDS011;56352;55.750;13.198;2023-04-01T14:57:58;1.52;;;0.88;;
69240;SDS011;56352;55.750;13.198;2023-04-01T15:00:24;2.05;;;0.80;;
69240;SDS011;56352;55.750;13.198;2023-04-01T15:03:02;3.47;;;1.00;;
69240;SDS011;56352;55.750;13.198;2023-04-01T15:05:39;3.20;;;1.33;;
69240;SDS011;56352;55.750;13.198;2023-04-01T15:18:09;1.75;;;0.90;;
69240;SDS011;56352;55.750;13.198;2023-04-01T15:20:56;1.33;;;0.77;;
69240;SDS011;56352;55.750;13.198;2023-04-01T15:23:30;2.28;;;1.08;;
69240;SDS011;56352;55.750;13.198;2023-04-01T15:36:29;0.77;;;0.70;;
69240;SDS011;56352;55.750;13.198;2023-04-01T15:39:01;2.22;;;0.77;;
69240;SDS011;56352;55.750;13.198;2023-04-01T15:41:37;1.85;;;1.08;;
69240;SDS011;56352;55.750;13.198;2023-04-01T15:47:45;1.83;;;0.95;;
69240;SDS011;56352;55.750;13.198;2023-04-01T16:02:33;2.25;;;1.23;;
69240;SDS011;56352;55.750;13.198;2023-04-01T16:05:04;1.23;;;0.85;;
69240;SDS011;56352;55.750;13.198;2023-04-01T16:21:02;2.08;;;1.30;;
69240;SDS011;56352;55.750;13.198;2023-04-01T16:28:52;2.53;;;1.10;;
69240;SDS011;56352;55.750;13.198;2023-04-01T16:34:08;2.25;;;1.00;;
69240;SDS011;56352;55.750;13.198;2023-04-01T16:41:49;2.08;;;0.90;;
69240;SDS011;56352;55.750;13.198;2023-04-01T16:44:22;1.00;;;0.70;;
69240;SDS011;56352;55.750;13.198;2023-04-01T16:46:50;1.45;;;0.82;;
69240;SDS011;56352;55.750;13.198;2023-04-01T16:49:28;2.45;;;0.90;;
69240;SDS011;56352;55.750;13.198;2023-04-01T16:52:03;1.70;;;0.80;;
69240;SDS011;56352;55.750;13.198;2023-04-01T16:54:40;1.00;;;0.70;;
69240;SDS011;56352;55.750;13.198;2023-04-01T16:59:36;2.45;;;0.85;;
69240;SDS011;56352;55.750;13.198;2023-04-01T17:07:15;1.20;;;0.73;;
69240;SDS011;56352;55.750;13.198;2023-04-01T17:15:16;2.33;;;0.82;;
69240;SDS011;56352;55.750;13.198;2023-04-01T17:20:40;0.90;;;0.70;;
69240;SDS011;56352;55.750;13.198;2023-04-01T17:23:19;1.88;;;0.82;;
69240;SDS011;56352;55.750;13.198;2023-04-01T17:25:57;1.88;;;0.70;;
69240;SDS011;56352;55.750;13.198;2023-04-01T17:31:15;1.83;;;0.70;;
69240;SDS011;56352;55.750;13.198;2023-04-01T17:33:53;1.02;;;0.65;;
69240;SDS011;56352;55.750;13.198;2023-04-01T17:52:00;1.92;;;0.80;;
69240;SDS011;56352;55.750;13.198;2023-04-01T17:57:00;1.40;;;1.00;;
69240;SDS011;56352;55.750;13.198;2023-04-01T17:59:39;1.90;;;0.80;;
69240;SDS011;56352;55.750;13.198;2023-04-01T18:10:08;1.88;;;0.88;;
69240;SDS011;56352;55.750;13.198;2023-04-01T18:12:59;2.17;;;0.60;;
69240;SDS011;56352;55.750;13.198;2023-04-01T18:18:18;2.70;;;0.80;;
69240;SDS011;56352;55.750;13.198;2023-04-01T18:21:27;2.83;;;1.23;;
69240;SDS011;56352;55.750;13.198;2023-04-01T18:23:53;1.92;;;1.20;;
69240;SDS011;56352;55.750;13.198;2023-04-01T18:26:29;1.45;;;0.98;;
69240;SDS011;56352;55.750;13.198;2023-04-01T18:28:59;2.53;;;1.27;;
69240;SDS011;56352;55.750;13.198;2023-04-01T18:31:41;2.40;;;1.02;;
69240;SDS011;56352;55.750;13.198;2023-04-01T18:34:12;3.13;;;0.90;;
69240;SDS011;56352;55.750;13.198;2023-04-01T18:36:40;2.08;;;1.08;;
69240;SDS011;56352;55.750;13.198;2023-04-01T18:39:12;2.70;;;1.13;;
69240;SDS011;56352;55.750;13.198;2023-04-01T18:51:54;1.17;;;0.60;;
69240;SDS011;56352;55.750;13.198;2023-04-01T18:54:26;0.93;;;0.63;;
69240;SDS011;56352;55.750;13.198;2023-04-01T18:59:53;1.17;;;0.50;;
69240;SDS011;56352;55.750;13.198;2023-04-01T19:02:35;1.95;;;0.70;;
69240;SDS011;56352;55.750;13.198;2023-04-01T19:05:04;1.00;;;0.60;;
69240;SDS011;56352;55.750;13.198;2023-04-01T19:10:07;1.38;;;0.68;;
69240;SDS011;56352;55.750;13.198;2023-04-01T19:20:18;2.47;;;0.75;;
69240;SDS011;56352;55.750;13.198;2023-04-01T19:28:16;1.85;;;0.70;;
69240;SDS011;56352;55.750;13.198;2023-04-01T19:31:02;1.35;;;0.50;;
69240;SDS011;56352;55.750;13.198;2023-04-01T19:38:30;0.55;;;0.47;;
69240;SDS011;56352;55.750;13.198;2023-04-01T19:41:10;1.25;;;0.75;;
69240;SDS011;56352;55.750;13.198;2023-04-01T19:43:42;2.63;;;0.60;;
69240;SDS011;56352;55.750;13.198;2023-04-01T19:46:23;1.63;;;0.40;;
69240;SDS011;56352;55.750;13.198;2023-04-01T19:51:38;1.35;;;0.68;;
69240;SDS011;56352;55.750;13.198;2023-04-01T19:56:39;0.93;;;0.40;;
69240;SDS011;56352;55.750;13.198;2023-04-01T19:59:26;0.75;;;0.65;;
69240;SDS011;56352;55.750;13.198;2023-04-01T20:02:20;1.30;;;0.70;;
69240;SDS011;56352;55.750;13.198;2023-04-01T20:04:53;3.33;;;0.68;;
69240;SDS011;56352;55.750;13.198;2023-04-01T20:14:56;0.80;;;0.40;;
69240;SDS011;56352;55.750;13.198;2023-04-01T20:17:24;0.70;;;0.60;;
69240;SDS011;56352;55.750;13.198;2023-04-01T20:19:59;2.40;;;0.32;;
69240;SDS011;56352;55.750;13.198;2023-04-01T20:22:38;0.20;;;0.20;;
69240;SDS011;56352;55.750;13.198;2023-04-01T20:30:34;1.30;;;0.20;;
69240;SDS011;56352;55.750;13.198;2023-04-01T20:38:24;0.95;;;0.50;;
69240;SDS011;56352;55.750;13.198;2023-04-01T20:43:35;1.15;;;0.80;;
69240;SDS011;56352;55.750;13.198;2023-04-01T20:46:16;0.63;;;0.60;;
69240;SDS011;56352;55.750;13.198;2023-04-01T20:51:16;0.60;;;0.22;;
69240;SDS011;56352;55.750;13.198;2023-04-01T20:58:54;0.25;;;0.20;;
69240;SDS011;56352;55.750;13.198;2023-04-01T21:01:30;0.65;;;0.20;;
69240;SDS011;56352;55.750;13.198;2023-04-01T21:12:00;0.52;;;0.30;;
69240;SDS011;56352;55.750;13.198;2023-04-01T21:15:03;1.00;;;0.30;;
69240;SDS011;56352;55.750;13.198;2023-04-01T21:17:41;0.10;;;0.10;;
69240;SDS011;56352;55.750;13.198;2023-04-01T21:35:43;0.60;;;0.22;;
69240;SDS011;56352;55.750;13.198;2023-04-01T21:38:23;2.58;;;0.22;;
69240;SDS011;56352;55.750;13.198;2023-04-01T21:51:13;0.50;;;0.30;;
69240;SDS011;56352;55.750;13.198;2023-04-01T21:53:55;0.60;;;0.25;;
69240;SDS011;56352;55.750;13.198;2023-04-01T21:56:39;0.17;;;0.17;;
69240;SDS011;56352;55.750;13.198;2023-04-01T22:07:44;0.20;;;0.20;;
69240;SDS011;56352;55.750;13.198;2023-04-01T22:12:43;1.13;;;0.30;;
69240;SDS011;56352;55.750;13.198;2023-04-01T22:18:06;1.25;;;0.30;;
69240;SDS011;56352;55.750;13.198;2023-04-01T22:20:47;0.85;;;0.20;;
69240;SDS011;56352;55.750;13.198;2023-04-01T22:35:50;0.35;;;0.35;;
69240;SDS011;56352;55.750;13.198;2023-04-01T22:43:55;0.55;;;0.40;;
69240;SDS011;56352;55.750;13.198;2023-04-01T22:49:06;1.13;;;0.32;;
69240;SDS011;56352;55.750;13.198;2023-04-01T22:54:13;3.13;;;0.30;;
69240;SDS011;56352;55.750;13.198;2023-04-01T22:56:44;2.95;;;0.52;;
69240;SDS011;56352;55.750;13.198;2023-04-01T23:01:55;0.95;;;0.43;;
69240;SDS011;56352;55.750;13.198;2023-04-01T23:04:29;0.40;;;0.38;;
69240;SDS011;56352;55.750;13.198;2023-04-01T23:07:00;0.20;;;0.20;;
69240;SDS011;56352;55.750;13.198;2023-04-01T23:09:29;0.40;;;0.20;;
69240;SDS011;56352;55.750;13.198;2023-04-01T23:12:07;0.30;;;0.30;;
69240;SDS011;56352;55.750;13.198;2023-04-01T23:22:38;0.45;;;0.43;;
69240;SDS011;56352;55.750;13.198;2023-04-01T23:27:38;0.25;;;0.20;;
69240;SDS011;56352;55.750;13.198;2023-04-01T23:30:45;0.22;;;0.22;;
69240;SDS011;56352;55.750;13.198;2023-04-01T23:32:53;0.20;;;0.20;;
69240;SDS011;56352;55.750;13.198;2023-04-01T23:35:19;2.33;;;0.30;;
69240;SDS011;56352;55.750;13.198;2023-04-01T23:37:46;0.73;;;0.30;;
69240;SDS011;56352;55.750;13.198;2023-04-01T23:40:12;0.35;;;0.20;;
69240;SDS011;56352;55.750;13.198;2023-04-01T23:42:40;0.75;;;0.35;;
69240;SDS011;56352;55.750;13.198;2023-04-01T23:45:14;2.08;;;0.43;;
69240;SDS011;56352;55.750;13.198;2023-04-01T23:47:44;0.20;;;0.20;;
69240;SDS011;56352;55.750;13.198;2023-04-01T23:50:18;0.82;;;0.30;;
69240;SDS011;56352;55.750;13.198;2023-04-01T23:52:47;0.52;;;0.35;;
69240;SDS011;56352;55.750;13.198;2023-04-01T23:55:17;0.20;;;0.10;;
69240;SDS011;56352;55.750;13.198;2023-04-01T23:58:00;0.85;;;0.30;;
